Time;durP1;ratioP1;P1;durP2;ratioP2;P2;SDS_P1;SDS_P2;PMS_P1;PMS_P2;Temp;Humidity;BMP_temperature;BMP_pressure;BME280_temperature;BME280_humidity;BME280_pressure;Samples;Min_cycle;Max_cycle;Signal;HPM_P1;HPM_P2
2024/01/16 00:02:21;;;;;;;4.10;3.90;;;-0.60;68.60;;;;;;6228158;28;20333;-82
2024/01/16 00:05:24;;;;;;;4.40;4.00;;;-0.60;68.80;;;;;;6230711;28;20320;-80
2024/01/16 00:08:28;;;;;;;4.80;4.50;;;-0.70;69.20;;;;;;6242608;28;20724;-80
2024/01/16 00:11:32;;;;;;;4.63;4.23;;;-0.70;69.50;;;;;;6235852;28;20238;-81
2024/01/16 00:14:37;;;;;;;4.90;4.20;;;-0.70;70.00;;;;;;6237594;28;20917;-82
2024/01/16 00:17:40;;;;;;;5.67;4.20;;;-0.90;70.60;;;;;;6250381;28;20773;-80
2024/01/16 00:20:44;;;;;;;5.43;4.17;;;-0.80;70.40;;;;;;6254152;28;20241;-80
2024/01/16 00:23:48;;;;;;;4.23;4.03;;;-0.80;70.90;;;;;;6239358;28;20242;-80
2024/01/16 00:26:51;;;;;;;4.63;4.33;;;-0.80;71.00;;;;;;6238493;28;20235;-80
2024/01/16 00:29:55;;;;;;;4.73;4.43;;;-0.80;71.30;;;;;;6246561;28;20236;-80
2024/01/16 00:32:59;;;;;;;4.73;4.30;;;-0.80;72.00;;;;;;6261646;28;20300;-81
2024/01/16 00:36:02;;;;;;;4.87;4.67;;;-0.90;72.50;;;;;;6255845;28;20249;-81
2024/01/16 00:39:08;;;;;;;5.03;4.53;;;-0.80;72.80;;;;;;6259139;28;20818;-82
2024/01/16 00:42:11;;;;;;;5.53;5.20;;;-0.80;73.10;;;;;;6256977;28;20313;-81
2024/01/16 00:45:18;;;;;;;5.90;5.23;;;-0.90;73.20;;;;;;6262517;28;20744;-80
2024/01/16 00:48:21;;;;;;;5.67;5.17;;;-0.90;74.20;;;;;;6255004;28;20321;-79
2024/01/16 00:51:25;;;;;;;4.90;4.60;;;-0.90;74.50;;;;;;6256537;28;20269;-79
2024/01/16 00:54:30;;;;;;;6.43;5.07;;;-0.90;75.20;;;;;;6248822;28;20246;-82
2024/01/16 00:57:33;;;;;;;5.33;4.93;;;-1.00;76.00;;;;;;6245127;28;20682;-81
2024/01/16 01:00:37;;;;;;;4.40;4.20;;;-1.00;76.70;;;;;;6252340;28;20615;-82
2024/01/16 01:03:40;;;;;;;5.07;4.70;;;-1.00;76.90;;;;;;6246535;28;20625;-82
2024/01/16 01:06:43;;;;;;;4.93;4.73;;;-1.10;77.80;;;;;;6253385;28;20384;-81
2024/01/16 01:09:49;;;;;;;4.30;4.10;;;-1.10;78.00;;;;;;6262074;28;20245;-80
2024/01/16 01:12:53;;;;;;;4.30;4.00;;;-1.20;78.70;;;;;;6262519;28;20237;-80
2024/01/16 01:15:56;;;;;;;4.70;4.50;;;-1.30;78.90;;;;;;6247917;28;20250;-81
2024/01/16 01:18:59;;;;;;;4.80;4.40;;;-1.30;78.90;;;;;;6244011;28;20234;-81
2024/01/16 01:22:02;;;;;;;4.63;4.20;;;-1.30;79.20;;;;;;6254710;28;20317;-81
2024/01/16 01:25:10;;;;;;;4.63;4.30;;;-1.30;79.40;;;;;;6254064;28;20234;-81
2024/01/16 01:28:13;;;;;;;4.13;3.93;;;-1.30;79.20;;;;;;6258163;28;20242;-82
2024/01/16 01:31:16;;;;;;;4.70;4.40;;;-1.30;79.20;;;;;;6246692;28;20316;-82
2024/01/16 01:34:19;;;;;;;4.50;4.20;;;-1.30;79.20;;;;;;6248753;28;20265;-81
2024/01/16 01:37:23;;;;;;;4.20;4.10;;;-1.30;79.40;;;;;;6257244;28;20238;-82
2024/01/16 01:40:27;;;;;;;4.10;3.90;;;-1.40;79.40;;;;;;6248840;28;20245;-81
2024/01/16 01:43:30;;;;;;;4.30;4.20;;;-1.40;79.40;;;;;;6253333;28;20272;-81
2024/01/16 01:46:35;;;;;;;4.10;4.00;;;-1.40;79.30;;;;;;6256943;28;20254;-82
2024/01/16 01:49:39;;;;;;;4.67;4.00;;;-1.50;79.20;;;;;;6244885;28;20245;-82
2024/01/16 01:52:42;;;;;;;4.07;3.87;;;-1.50;79.10;;;;;;6244041;28;20307;-80
2024/01/16 01:55:48;;;;;;;4.00;3.90;;;-1.50;79.20;;;;;;6250036;28;20244;-80
2024/01/16 01:58:56;;;;;;;4.63;4.23;;;-1.50;79.20;;;;;;6266794;28;20258;-79
2024/01/16 02:02:00;;;;;;;4.07;3.97;;;-1.50;79.20;;;;;;6261164;28;20238;-81
2024/01/16 02:05:04;;;;;;;4.10;3.80;;;-1.50;79.00;;;;;;6253461;28;20293;-80
2024/01/16 02:08:10;;;;;;;3.83;3.70;;;-1.50;79.00;;;;;;6252478;28;20254;-80
2024/01/16 02:11:15;;;;;;;4.70;4.00;;;-1.50;78.90;;;;;;6255655;28;20272;-80
2024/01/16 02:14:18;;;;;;;4.00;3.80;;;-1.50;78.70;;;;;;6257125;28;20765;-83
2024/01/16 02:17:21;;;;;;;4.17;3.90;;;-1.50;78.60;;;;;;6253605;28;20817;-80
2024/01/16 02:20:24;;;;;;;4.10;3.90;;;-1.50;78.60;;;;;;6261494;28;20705;-82
2024/01/16 02:23:30;;;;;;;4.40;4.10;;;-1.50;78.70;;;;;;6256722;28;20246;-80
2024/01/16 02:26:36;;;;;;;4.20;3.90;;;-1.50;78.70;;;;;;6242711;28;20244;-81
2024/01/16 02:29:42;;;;;;;4.00;3.77;;;-1.60;78.70;;;;;;6238395;28;20235;-80
2024/01/16 02:32:48;;;;;;;4.13;4.10;;;-1.60;78.80;;;;;;6259518;28;20287;-80
2024/01/16 02:35:51;;;;;;;4.23;3.93;;;-1.60;78.80;;;;;;6252224;28;20245;-81
2024/01/16 02:38:57;;;;;;;4.37;3.97;;;-1.50;78.70;;;;;;6261077;28;20230;-82
2024/01/16 02:42:00;;;;;;;4.40;4.30;;;-1.50;78.60;;;;;;6265165;28;20332;-81
2024/01/16 02:45:04;;;;;;;4.20;4.10;;;-1.50;78.60;;;;;;6261457;28;20732;-81
2024/01/16 02:48:08;;;;;;;4.30;4.20;;;-1.60;78.50;;;;;;6246318;28;20266;-83
2024/01/16 02:51:11;;;;;;;3.93;3.83;;;-1.60;78.50;;;;;;6263638;28;20230;-80
2024/01/16 02:54:15;;;;;;;4.33;4.13;;;-1.70;78.30;;;;;;6247317;28;20238;-81
2024/01/16 02:57:19;;;;;;;4.40;4.10;;;-1.70;78.30;;;;;;6246122;28;20254;-82
2024/01/16 03:00:22;;;;;;;4.43;4.27;;;-1.80;78.20;;;;;;6258577;28;20234;-79
2024/01/16 03:03:25;;;;;;;4.30;4.20;;;-1.80;78.00;;;;;;6255308;28;20245;-80
2024/01/16 03:06:29;;;;;;;4.23;4.13;;;-1.90;78.20;;;;;;6266607;28;20245;-81
2024/01/16 03:09:34;;;;;;;5.13;4.80;;;-2.00;78.20;;;;;;6257106;28;20317;-80
2024/01/16 03:12:38;;;;;;;4.83;4.67;;;-2.10;78.30;;;;;;6259419;28;20553;-80
2024/01/16 03:15:41;;;;;;;4.43;4.23;;;-2.10;78.40;;;;;;6260808;28;20253;-80
2024/01/16 03:18:44;;;;;;;4.33;4.13;;;-2.10;78.40;;;;;;6263672;28;20863;-82
2024/01/16 03:21:47;;;;;;;4.60;4.37;;;-2.10;78.50;;;;;;6245961;28;20233;-81
2024/01/16 03:24:53;;;;;;;3.90;3.70;;;-2.10;78.60;;;;;;6242070;28;20239;-82
2024/01/16 03:27:56;;;;;;;4.53;4.40;;;-2.00;78.60;;;;;;6263879;28;20261;-82
2024/01/16 03:30:59;;;;;;;5.27;4.77;;;-2.00;78.60;;;;;;6254238;28;20270;-81
2024/01/16 03:34:03;;;;;;;4.77;4.57;;;-2.00;78.70;;;;;;6256138;28;20231;-81
2024/01/16 03:37:06;;;;;;;5.00;4.70;;;-1.90;78.70;;;;;;6244161;28;20230;-81
2024/01/16 03:40:12;;;;;;;7.77;4.73;;;-1.80;78.60;;;;;;6245604;28;20253;-81
2024/01/16 03:43:18;;;;;;;5.30;4.73;;;-1.80;78.60;;;;;;6261083;28;20324;-80
2024/01/16 03:46:21;;;;;;;4.53;4.43;;;-1.80;78.20;;;;;;6250018;28;20256;-80
2024/01/16 03:49:25;;;;;;;6.20;4.70;;;-1.70;78.30;;;;;;6256568;28;20428;-82
2024/01/16 03:52:28;;;;;;;4.57;4.30;;;-1.80;78.10;;;;;;6254519;28;20242;-80
2024/01/16 03:55:33;;;;;;;4.97;4.50;;;-1.90;78.30;;;;;;6252228;28;20273;-79
2024/01/16 03:58:36;;;;;;;5.13;4.83;;;-1.80;78.10;;;;;;6254076;28;20253;-80
2024/01/16 04:01:40;;;;;;;5.07;4.80;;;-1.70;77.80;;;;;;6262602;28;20234;-79
2024/01/16 04:04:44;;;;;;;5.03;4.60;;;-1.60;77.50;;;;;;6254657;28;20369;-80
2024/01/16 04:07:47;;;;;;;5.10;4.80;;;-1.60;77.50;;;;;;6257122;28;20879;-82
2024/01/16 04:10:52;;;;;;;5.70;5.30;;;-1.70;77.70;;;;;;6261038;28;20245;-80
2024/01/16 04:13:55;;;;;;;5.70;5.40;;;-1.70;77.90;;;;;;6254988;28;20243;-79
2024/01/16 04:16:58;;;;;;;5.83;5.33;;;-1.70;78.00;;;;;;6253133;28;20238;-81
2024/01/16 04:20:01;;;;;;;6.50;6.07;;;-1.70;78.10;;;;;;6255166;28;20230;-82
2024/01/16 04:23:07;;;;;;;6.80;6.27;;;-1.70;78.10;;;;;;6253717;28;20245;-80
2024/01/16 04:26:12;;;;;;;6.30;6.00;;;-1.60;78.10;;;;;;6254144;28;20237;-81
2024/01/16 04:29:15;;;;;;;6.37;6.07;;;-1.70;78.20;;;;;;6233007;28;20249;-82
2024/01/16 04:32:18;;;;;;;6.90;6.50;;;-1.60;78.30;;;;;;6255535;28;20719;-78
2024/01/16 04:35:21;;;;;;;7.57;6.93;;;-1.60;78.40;;;;;;6252883;28;20234;-79
2024/01/16 04:38:25;;;;;;;7.03;6.40;;;-1.60;78.40;;;;;;6248403;28;20233;-82
2024/01/16 04:41:29;;;;;;;6.90;6.40;;;-1.50;78.20;;;;;;6254056;28;20233;-80
2024/01/16 04:44:32;;;;;;;6.63;6.23;;;-1.50;78.10;;;;;;6252904;28;20230;-81
2024/01/16 04:47:36;;;;;;;6.33;5.93;;;-1.50;78.10;;;;;;6259198;28;20242;-81
2024/01/16 04:50:39;;;;;;;6.87;6.27;;;-1.50;78.00;;;;;;6260138;28;20248;-80
2024/01/16 04:53:42;;;;;;;6.73;6.00;;;-1.60;78.00;;;;;;6251284;28;20254;-80
2024/01/16 04:56:47;;;;;;;7.13;6.63;;;-1.60;78.30;;;;;;6257474;28;20760;-80
2024/01/16 04:59:50;;;;;;;6.13;5.83;;;-1.70;78.40;;;;;;6257236;28;20246;-83
2024/01/16 05:02:54;;;;;;;6.47;5.93;;;-1.60;78.50;;;;;;6259295;28;20359;-80
2024/01/16 05:05:57;;;;;;;5.77;5.50;;;-1.70;78.60;;;;;;6254288;28;20745;-81
2024/01/16 05:09:00;;;;;;;5.90;5.40;;;-1.60;78.20;;;;;;6249849;28;20258;-81
2024/01/16 05:12:06;;;;;;;5.60;5.20;;;-1.70;78.10;;;;;;6245896;28;20907;-80
2024/01/16 05:15:11;;;;;;;5.80;5.50;;;-1.60;78.30;;;;;;6255258;28;20748;-78
2024/01/16 05:18:14;;;;;;;5.77;5.40;;;-1.60;78.20;;;;;;6247899;28;20249;-80
2024/01/16 05:21:17;;;;;;;5.83;5.43;;;-1.70;78.30;;;;;;6252063;28;20234;-82
2024/01/16 05:24:20;;;;;;;6.23;5.83;;;-1.60;78.40;;;;;;6245744;28;20277;-81
2024/01/16 05:27:25;;;;;;;5.90;5.50;;;-1.60;78.30;;;;;;6248235;28;20702;-76
2024/01/16 05:30:28;;;;;;;6.97;6.47;;;-1.60;78.20;;;;;;6257349;28;20246;-80
2024/01/16 05:33:32;;;;;;;7.00;6.33;;;-1.60;78.10;;;;;;6253800;28;20235;-82
2024/01/16 05:36:35;;;;;;;7.03;6.73;;;-1.70;78.10;;;;;;6246954;28;20225;-80
2024/01/16 05:39:38;;;;;;;6.90;6.43;;;-1.70;78.30;;;;;;6250701;28;20232;-78
2024/01/16 05:42:43;;;;;;;7.87;7.20;;;-1.70;78.40;;;;;;6260534;28;20233;-80
2024/01/16 05:45:46;;;;;;;7.63;7.23;;;-1.70;78.50;;;;;;6246902;28;20321;-79
2024/01/16 05:48:49;;;;;;;8.47;7.70;;;-1.60;78.70;;;;;;6257691;28;20237;-80
2024/01/16 05:51:52;;;;;;;8.03;7.33;;;-1.60;78.50;;;;;;6252006;28;20234;-79
2024/01/16 05:54:57;;;;;;;7.97;7.37;;;-1.60;78.60;;;;;;6247973;28;20273;-81
2024/01/16 05:58:01;;;;;;;7.43;6.93;;;-1.60;78.40;;;;;;6250631;28;20337;-81
2024/01/16 06:01:05;;;;;;;8.00;7.50;;;-1.70;78.50;;;;;;6251799;28;20262;-79
2024/01/16 06:04:08;;;;;;;6.90;6.50;;;-1.80;78.70;;;;;;6243766;28;20242;-78
2024/01/16 06:07:14;;;;;;;6.77;6.37;;;-1.80;78.60;;;;;;6255860;28;20245;-81
2024/01/16 06:10:17;;;;;;;7.27;6.57;;;-1.80;78.50;;;;;;6253799;28;20724;-80
2024/01/16 06:13:22;;;;;;;6.73;6.43;;;-1.80;78.40;;;;;;6246355;28;20233;-79
2024/01/16 06:16:25;;;;;;;6.93;6.53;;;-1.90;78.60;;;;;;6246486;28;20292;-80
2024/01/16 06:19:28;;;;;;;6.80;6.50;;;-2.00;78.90;;;;;;6234247;28;20368;-79
2024/01/16 06:22:32;;;;;;;8.40;6.93;;;-2.10;79.20;;;;;;6231410;28;20234;-81
2024/01/16 06:25:35;;;;;;;7.77;7.27;;;-2.00;79.30;;;;;;6228672;28;20707;-78
2024/01/16 06:28:42;;;;;;;7.73;7.13;;;-2.10;79.30;;;;;;6235110;28;20806;-80
2024/01/16 06:31:45;;;;;;;7.87;7.37;;;-2.10;79.30;;;;;;6235686;28;20235;-76
2024/01/16 06:34:48;;;;;;;8.97;7.30;;;-2.10;79.40;;;;;;6239722;28;20731;-76
2024/01/16 06:37:51;;;;;;;7.23;6.83;;;-2.10;79.40;;;;;;6232711;28;20226;-77
2024/01/16 06:40:54;;;;;;;10.67;7.37;;;-2.10;79.30;;;;;;6238490;28;20231;-75
2024/01/16 06:43:59;;;;;;;7.70;7.20;;;-2.10;79.50;;;;;;6236641;28;20807;-77
2024/01/16 06:47:02;;;;;;;6.80;6.30;;;-2.10;79.70;;;;;;6238034;28;20242;-77
2024/01/16 06:50:07;;;;;;;6.93;6.50;;;-2.10;80.00;;;;;;6231879;28;20649;-76
2024/01/16 06:53:10;;;;;;;7.23;6.63;;;-2.10;80.00;;;;;;6237566;28;20239;-77
2024/01/16 06:56:16;;;;;;;6.57;6.27;;;-2.00;80.00;;;;;;6234474;28;20786;-77
2024/01/16 06:59:21;;;;;;;7.30;6.80;;;-2.00;79.80;;;;;;6266172;28;20373;-76
2024/01/16 07:02:26;;;;;;;8.30;6.73;;;-1.90;79.70;;;;;;6261246;28;20318;-74
2024/01/16 07:05:29;;;;;;;7.30;6.63;;;-2.00;79.60;;;;;;6264233;28;20245;-76
2024/01/16 07:08:32;;;;;;;7.30;6.70;;;-2.00;79.80;;;;;;6239349;28;20325;-76
2024/01/16 07:11:36;;;;;;;6.83;6.43;;;-2.00;79.90;;;;;;6241398;28;20308;-76
2024/01/16 07:14:40;;;;;;;7.10;6.50;;;-2.00;80.00;;;;;;6215816;28;20324;-77
2024/01/16 07:17:43;;;;;;;7.13;6.63;;;-1.90;80.00;;;;;;6233386;28;20241;-78
2024/01/16 07:20:46;;;;;;;7.70;7.03;;;-1.80;79.80;;;;;;6235253;28;20239;-77
2024/01/16 07:23:50;;;;;;;7.63;7.03;;;-1.80;79.50;;;;;;6233441;28;20245;-76
2024/01/16 07:26:54;;;;;;;8.20;7.33;;;-1.70;79.40;;;;;;6240910;28;20246;-77
2024/01/16 07:29:58;;;;;;;6.17;5.87;;;-1.70;79.30;;;;;;6211204;28;20247;-77
2024/01/16 07:33:01;;;;;;;7.53;6.77;;;-1.70;79.40;;;;;;6233202;28;20238;-78
2024/01/16 07:36:06;;;;;;;9.03;7.73;;;-1.70;79.70;;;;;;6231823;28;20247;-76
2024/01/16 07:39:09;;;;;;;9.87;8.97;;;-1.80;79.40;;;;;;6239581;28;20285;-74
2024/01/16 07:42:13;;;;;;;12.40;9.43;;;-1.70;79.70;;;;;;6228096;28;20322;-75
2024/01/16 07:45:18;;;;;;;11.10;10.00;;;-1.80;79.80;;;;;;6240041;28;20297;-75
2024/01/16 07:48:22;;;;;;;12.20;10.73;;;-1.80;79.90;;;;;;6235350;28;20438;-75
2024/01/16 07:51:25;;;;;;;11.83;10.73;;;-1.80;80.10;;;;;;6235757;28;20373;-76
2024/01/16 07:54:28;;;;;;;12.37;10.60;;;-1.70;79.90;;;;;;6241669;28;20325;-77
2024/01/16 07:57:32;;;;;;;11.30;10.30;;;-1.60;79.70;;;;;;6228507;28;20245;-78
2024/01/16 08:00:36;;;;;;;10.23;9.43;;;-1.50;79.60;;;;;;6231690;28;20302;-74
2024/01/16 08:03:39;;;;;;;11.30;10.17;;;-1.50;79.40;;;;;;6232341;28;20235;-75
2024/01/16 08:06:44;;;;;;;10.37;9.37;;;-1.40;79.40;;;;;;6229460;28;20235;-76
2024/01/16 08:09:48;;;;;;;11.43;9.67;;;-1.50;79.00;;;;;;6237651;28;20231;-75
2024/01/16 08:12:51;;;;;;;8.70;8.03;;;-1.40;78.70;;;;;;6221167;28;20318;-75
2024/01/16 08:15:55;;;;;;;8.43;7.63;;;-1.30;78.70;;;;;;6232651;28;20234;-76
2024/01/16 08:18:59;;;;;;;7.80;6.97;;;-1.30;78.60;;;;;;6239164;28;20231;-76
2024/01/16 08:22:02;;;;;;;9.60;7.50;;;-1.50;78.70;;;;;;6236327;28;20234;-78
2024/01/16 08:25:09;;;;;;;7.30;6.67;;;-1.50;79.20;;;;;;6244604;28;20382;-75
2024/01/16 08:28:12;;;;;;;7.43;7.00;;;-1.40;79.00;;;;;;6260387;28;20273;-76
2024/01/16 08:31:19;;;;;;;8.33;7.63;;;-1.20;78.60;;;;;;6262212;28;20241;-76
2024/01/16 08:34:22;;;;;;;8.13;7.43;;;-1.10;78.20;;;;;;6255363;28;20315;-75
2024/01/16 08:37:26;;;;;;;13.93;6.93;;;-1.10;78.30;;;;;;6257544;28;20884;-75
2024/01/16 08:40:29;;;;;;;8.43;7.63;;;-1.10;78.30;;;;;;6262891;28;20225;-74
2024/01/16 08:43:32;;;;;;;8.03;7.30;;;-1.00;78.30;;;;;;6263982;28;21063;-76
2024/01/16 08:46:36;;;;;;;13.27;7.47;;;-0.80;78.10;;;;;;6260203;28;20265;-78
2024/01/16 08:49:40;;;;;;;7.47;6.80;;;-0.80;77.50;;;;;;6254559;28;20750;-79
2024/01/16 08:52:43;;;;;;;8.00;7.23;;;-0.70;77.00;;;;;;6256437;28;20335;-77
2024/01/16 08:55:46;;;;;;;8.20;7.33;;;-0.70;76.70;;;;;;6257075;28;20257;-77
2024/01/16 08:58:49;;;;;;;8.33;7.53;;;-0.80;76.90;;;;;;6255393;28;20237;-78
2024/01/16 09:01:54;;;;;;;11.83;7.83;;;-0.90;77.30;;;;;;6256877;28;20326;-76
2024/01/16 09:04:58;;;;;;;9.73;7.67;;;-1.00;77.50;;;;;;6260825;28;20229;-76
2024/01/16 09:08:02;;;;;;;8.90;7.80;;;-0.90;77.90;;;;;;6244029;28;20968;-77
2024/01/16 09:11:05;;;;;;;8.90;8.03;;;-0.90;77.60;;;;;;6253564;28;20230;-75
2024/01/16 09:14:08;;;;;;;9.07;8.27;;;-0.90;77.50;;;;;;6256292;28;20329;-78
2024/01/16 09:17:13;;;;;;;9.10;8.30;;;-0.80;77.00;;;;;;6259994;28;20258;-76
2024/01/16 09:20:17;;;;;;;8.83;7.97;;;-0.70;76.90;;;;;;6254766;28;20315;-77
2024/01/16 09:23:20;;;;;;;8.50;7.70;;;-0.80;77.10;;;;;;6250576;28;20317;-76
2024/01/16 09:26:23;;;;;;;9.00;8.20;;;-0.80;77.20;;;;;;6257936;28;20591;-78
2024/01/16 09:29:27;;;;;;;9.47;8.63;;;-0.70;77.10;;;;;;6248760;28;24682;-74
2024/01/16 09:32:31;;;;;;;9.47;8.67;;;-0.70;77.60;;;;;;6257792;28;20713;-75
2024/01/16 09:35:34;;;;;;;9.43;8.63;;;-0.70;77.80;;;;;;6249490;28;20258;-76
2024/01/16 09:38:38;;;;;;;10.00;8.90;;;-0.70;77.90;;;;;;6251352;28;20284;-77
2024/01/16 09:41:42;;;;;;;9.53;8.57;;;-0.70;77.80;;;;;;6252457;28;20262;-78
2024/01/16 09:44:45;;;;;;;11.10;8.90;;;-0.70;77.70;;;;;;6249672;28;20324;-75
2024/01/16 09:47:52;;;;;;;9.30;8.60;;;-0.70;77.80;;;;;;6251924;28;20697;-75
2024/01/16 09:50:56;;;;;;;9.63;8.63;;;-0.60;77.60;;;;;;6260407;28;20230;-75
2024/01/16 09:53:59;;;;;;;8.80;7.93;;;-0.70;77.90;;;;;;6252101;28;20241;-76
2024/01/16 09:57:07;;;;;;;9.57;8.47;;;-0.70;78.00;;;;;;6250419;28;20227;-75
2024/01/16 10:00:12;;;;;;;9.50;8.53;;;-0.60;77.90;;;;;;6251532;28;20238;-77
2024/01/16 10:03:17;;;;;;;9.10;8.40;;;-0.50;78.10;;;;;;6257998;28;20257;-77
2024/01/16 10:06:22;;;;;;;10.10;8.77;;;-0.50;77.80;;;;;;6258537;28;20232;-76
2024/01/16 10:09:25;;;;;;;10.37;8.97;;;-0.30;77.70;;;;;;6255597;28;20321;-77
2024/01/16 10:12:28;;;;;;;10.27;9.07;;;-0.20;77.60;;;;;;6258348;28;20961;-76
2024/01/16 10:15:33;;;;;;;10.43;9.27;;;0.00;77.50;;;;;;6241961;28;20845;-76
2024/01/16 10:18:38;;;;;;;9.53;8.73;;;0.20;76.30;;;;;;6243470;28;20238;-75
2024/01/16 10:21:41;;;;;;;9.63;8.73;;;0.30;76.20;;;;;;6262601;28;20264;-76
2024/01/16 10:24:45;;;;;;;9.20;8.37;;;0.40;75.90;;;;;;6237148;28;20233;-77
2024/01/16 10:27:48;;;;;;;9.70;8.90;;;0.30;75.40;;;;;;6243467;28;20237;-78
2024/01/16 10:31:02;;;;;;;9.17;8.33;;;0.30;75.30;;;;;;6257652;28;20226;-77
2024/01/16 10:34:21;;;;;;;9.33;8.60;;;0.30;75.10;;;;;;6254658;28;20775;-77
2024/01/16 10:37:24;;;;;;;9.23;8.10;;;0.50;75.50;;;;;;6253222;28;20235;-76
2024/01/16 10:40:29;;;;;;;9.77;8.83;;;0.60;74.60;;;;;;6254831;28;20240;-79
2024/01/16 10:43:34;;;;;;;9.07;8.40;;;0.60;74.60;;;;;;6251476;28;20364;-76
2024/01/16 10:46:37;;;;;;;8.53;7.83;;;0.70;74.10;;;;;;6255804;28;20275;-76
2024/01/16 10:49:42;;;;;;;8.03;7.37;;;0.80;73.50;;;;;;6248479;28;20877;-76
2024/01/16 10:52:49;;;;;;;7.57;6.80;;;0.60;73.70;;;;;;6247554;28;20230;-78
2024/01/16 10:55:53;;;;;;;6.97;6.47;;;0.60;73.80;;;;;;6248939;28;20258;-76
2024/01/16 10:59:07;;;;;;;6.70;6.30;;;0.70;73.40;;;;;;6254510;28;20226;-76
2024/01/16 11:02:13;;;;;;;6.80;6.40;;;0.60;73.60;;;;;;6255894;28;20246;-75
2024/01/16 11:05:19;;;;;;;7.10;6.53;;;0.50;73.70;;;;;;6257757;28;20611;-78
2024/01/16 11:08:27;;;;;;;9.37;6.57;;;0.50;73.50;;;;;;6251956;28;20283;-78
2024/01/16 11:11:32;;;;;;;8.30;6.10;;;0.50;73.50;;;;;;6257343;28;20234;-77
2024/01/16 11:14:37;;;;;;;8.30;5.93;;;0.60;73.00;;;;;;6258772;28;20249;-79
2024/01/16 11:17:41;;;;;;;6.50;6.10;;;0.50;73.50;;;;;;6248552;28;20791;-77
2024/01/16 11:20:47;;;;;;;6.70;6.03;;;0.50;73.90;;;;;;6251999;28;20234;-77
2024/01/16 11:24:08;;;;;;;7.47;5.20;;;0.50;73.60;;;;;;6247219;28;20231;-77
2024/01/16 11:27:24;;;;;;;5.97;5.57;;;0.40;72.80;;;;;;6256811;28;20312;-79
2024/01/16 11:30:31;;;;;;;5.90;5.50;;;0.40;72.90;;;;;;6260716;28;20925;-78
2024/01/16 11:33:44;;;;;;;6.20;5.80;;;0.30;73.00;;;;;;6267194;28;20237;-77
2024/01/16 11:36:53;;;;;;;6.03;5.43;;;0.30;73.00;;;;;;6266219;28;20726;-77
2024/01/16 11:40:22;;;;;;;8.17;5.80;;;0.20;73.80;;;;;;6267767;28;20241;-75
2024/01/16 11:43:38;;;;;;;6.40;5.80;;;0.30;74.00;;;;;;6263957;28;20240;-77
2024/01/16 11:47:02;;;;;;;9.93;6.00;;;0.40;74.10;;;;;;6267278;28;20246;-77
2024/01/16 11:50:11;;;;;;;6.50;6.10;;;0.40;74.00;;;;;;6268410;28;20371;-76
2024/01/16 11:53:38;;;;;;;7.10;6.60;;;0.40;74.40;;;;;;6268158;28;20238;-78
2024/01/16 11:57:20;;;;;;;12.43;6.83;;;0.20;75.10;;;;;;6266179;28;20249;-76
2024/01/16 12:00:29;;;;;;;8.40;7.63;;;0.30;75.30;;;;;;6256750;28;20238;-77
2024/01/16 12:03:32;;;;;;;12.33;6.83;;;0.30;75.50;;;;;;6267577;28;20319;-75
2024/01/16 12:06:38;;;;;;;9.03;7.40;;;0.20;75.50;;;;;;6261099;28;20233;-77
2024/01/16 12:09:43;;;;;;;10.40;8.07;;;0.10;76.10;;;;;;6269483;28;20245;-77
2024/01/16 12:12:48;;;;;;;9.23;8.33;;;0.20;76.20;;;;;;6265567;28;20244;-76
2024/01/16 12:16:00;;;;;;;12.87;7.30;;;0.30;76.10;;;;;;6242047;28;20853;-77
2024/01/16 12:19:07;;;;;;;9.00;8.10;;;0.40;75.70;;;;;;6261983;28;20874;-76
2024/01/16 12:22:11;;;;;;;14.80;8.70;;;0.50;75.60;;;;;;6268634;28;20759;-77
2024/01/16 12:25:21;;;;;;;7.93;7.30;;;0.50;75.70;;;;;;6268472;28;20252;-75
2024/01/16 12:28:24;;;;;;;13.63;8.00;;;0.40;75.80;;;;;;6266469;28;20626;-78
2024/01/16 12:31:35;;;;;;;8.97;8.17;;;0.50;75.70;;;;;;6266622;28;20324;-75
2024/01/16 12:34:46;;;;;;;14.00;8.60;;;0.50;75.80;;;;;;6264874;28;20429;-78
2024/01/16 12:38:00;;;;;;;10.97;8.17;;;0.50;76.10;;;;;;6265224;28;20233;-77
2024/01/16 12:41:07;;;;;;;8.53;7.63;;;0.50;75.80;;;;;;6264100;28;20246;-76
2024/01/16 12:44:10;;;;;;;11.77;8.23;;;0.60;75.80;;;;;;6263474;28;20301;-76
2024/01/16 12:47:21;;;;;;;10.93;7.33;;;0.60;75.70;;;;;;6264165;28;20302;-75
2024/01/16 12:50:26;;;;;;;9.93;7.67;;;0.60;75.70;;;;;;6265568;28;20252;-78
2024/01/16 12:53:31;;;;;;;10.27;7.93;;;0.60;75.70;;;;;;6253674;28;20233;-78
2024/01/16 12:56:36;;;;;;;9.33;7.70;;;0.60;75.80;;;;;;6264724;28;20229;-76
2024/01/16 12:59:41;;;;;;;12.10;8.17;;;0.80;75.20;;;;;;6266477;28;20230;-76
2024/01/16 13:02:50;;;;;;;11.80;7.77;;;0.60;75.60;;;;;;6265445;28;20729;-76
2024/01/16 13:05:56;;;;;;;7.90;7.47;;;0.50;76.80;;;;;;6268526;28;20249;-75
2024/01/16 13:09:09;;;;;;;7.43;6.93;;;0.50;77.50;;;;;;6265280;28;20253;-77
2024/01/16 13:12:21;;;;;;;10.47;7.60;;;0.50;77.90;;;;;;6267525;28;20326;-78
2024/01/16 13:15:24;;;;;;;8.20;7.37;;;0.50;77.50;;;;;;6266063;28;20234;-76
2024/01/16 13:18:29;;;;;;;9.57;8.07;;;0.40;77.50;;;;;;6268389;28;20234;-76
2024/01/16 13:21:32;;;;;;;15.27;8.13;;;0.50;77.50;;;;;;6265923;28;20262;-78
2024/01/16 13:24:36;;;;;;;8.10;6.97;;;0.60;77.30;;;;;;6267078;28;20683;-77
2024/01/16 13:27:40;;;;;;;8.80;6.77;;;0.60;76.60;;;;;;6265712;28;20271;-76
2024/01/16 13:30:44;;;;;;;9.03;7.13;;;0.70;76.20;;;;;;6265828;28;20694;-75
2024/01/16 13:33:50;;;;;;;10.57;6.63;;;0.70;75.40;;;;;;6268205;28;20264;-75
2024/01/16 13:36:53;;;;;;;6.47;5.97;;;0.80;75.00;;;;;;6266177;28;20439;-76
2024/01/16 13:40:18;;;;;;;13.23;6.27;;;0.80;74.60;;;;;;6264801;28;20234;-78
2024/01/16 13:43:26;;;;;;;10.73;7.00;;;0.80;74.00;;;;;;6266684;28;20238;-77
2024/01/16 13:46:29;;;;;;;8.57;6.40;;;0.60;74.50;;;;;;6265814;28;20717;-77
2024/01/16 13:49:52;;;;;;;6.67;6.17;;;0.70;74.40;;;;;;6266398;28;20242;-80
2024/01/16 13:52:56;;;;;;;6.70;6.23;;;0.70;74.30;;;;;;6265822;28;20241;-78
2024/01/16 13:55:59;;;;;;;10.03;6.33;;;0.70;74.20;;;;;;6265236;28;20242;-77
2024/01/16 13:59:04;;;;;;;6.53;6.07;;;0.70;74.30;;;;;;6265586;28;20324;-77
2024/01/16 14:02:08;;;;;;;8.23;6.33;;;0.70;74.70;;;;;;6264479;28;20325;-77
2024/01/16 14:05:15;;;;;;;8.63;6.10;;;0.60;75.20;;;;;;6263532;28;20839;-75
2024/01/16 14:08:19;;;;;;;8.80;7.30;;;0.60;75.30;;;;;;6262198;28;20717;-77
2024/01/16 14:11:22;;;;;;;6.30;5.77;;;0.60;75.50;;;;;;6254484;28;21474;-76
2024/01/16 14:14:27;;;;;;;9.53;6.40;;;0.60;75.20;;;;;;6264354;28;20595;-76
2024/01/16 14:17:30;;;;;;;6.77;6.17;;;0.60;74.80;;;;;;6266653;28;20230;-75
2024/01/16 14:20:33;;;;;;;7.20;5.93;;;0.60;74.20;;;;;;6264054;28;20233;-78
2024/01/16 14:23:37;;;;;;;6.07;5.50;;;0.70;74.00;;;;;;6264746;28;21040;-80
2024/01/16 14:26:44;;;;;;;8.40;5.90;;;0.80;73.80;;;;;;6264343;28;20237;-79
2024/01/16 14:29:49;;;;;;;6.60;6.00;;;0.70;73.50;;;;;;6263379;28;20237;-78
2024/01/16 14:32:53;;;;;;;7.57;6.13;;;0.80;73.30;;;;;;6264938;28;20238;-76
2024/01/16 14:35:56;;;;;;;6.70;5.90;;;0.80;73.20;;;;;;6264294;28;20847;-78
2024/01/16 14:39:02;;;;;;;6.93;6.20;;;0.70;73.90;;;;;;6265361;28;20323;-75
2024/01/16 14:42:07;;;;;;;8.97;6.67;;;0.60;74.40;;;;;;6264138;28;20246;-76
2024/01/16 14:45:12;;;;;;;6.87;6.03;;;0.60;74.80;;;;;;6257930;28;20249;-76
2024/01/16 14:48:16;;;;;;;8.63;6.47;;;0.60;75.00;;;;;;6270282;28;20240;-77
2024/01/16 14:51:20;;;;;;;7.03;6.30;;;0.60;74.70;;;;;;6269341;28;20325;-77
2024/01/16 14:54:23;;;;;;;7.67;6.27;;;0.70;74.50;;;;;;6256302;28;20339;-78
2024/01/16 14:57:30;;;;;;;6.73;6.13;;;0.70;75.10;;;;;;6268734;28;20267;-78
2024/01/16 15:00:35;;;;;;;9.10;6.60;;;0.60;75.30;;;;;;6269733;28;20247;-75
2024/01/16 15:03:38;;;;;;;8.10;6.37;;;0.60;75.10;;;;;;6268880;28;20233;-78
2024/01/16 15:06:41;;;;;;;8.93;6.43;;;0.50;75.30;;;;;;6268462;28;20333;-77
2024/01/16 15:09:45;;;;;;;8.67;7.37;;;0.60;75.40;;;;;;6269546;28;20249;-76
2024/01/16 15:12:48;;;;;;;8.73;6.33;;;0.60;75.50;;;;;;6268337;28;20392;-78
2024/01/16 15:15:54;;;;;;;9.00;7.47;;;0.60;75.30;;;;;;6267773;28;20429;-76
2024/01/16 15:18:57;;;;;;;7.83;7.03;;;0.50;75.60;;;;;;6270627;28;20253;-77
2024/01/16 15:22:00;;;;;;;8.37;7.57;;;0.40;75.90;;;;;;6271575;28;20234;-76
2024/01/16 15:25:05;;;;;;;8.07;7.47;;;0.40;76.00;;;;;;6271909;28;20278;-76
2024/01/16 15:28:08;;;;;;;9.07;7.43;;;0.30;76.50;;;;;;6272571;28;20240;-77
2024/01/16 15:31:13;;;;;;;8.40;7.53;;;0.30;76.60;;;;;;6272621;28;20245;-77
2024/01/16 15:34:16;;;;;;;9.77;7.07;;;0.20;77.10;;;;;;6269444;28;20801;-77
2024/01/16 15:37:19;;;;;;;8.60;7.73;;;0.20;77.40;;;;;;6269550;28;20291;-77
2024/01/16 15:40:23;;;;;;;9.47;7.20;;;0.10;77.70;;;;;;6266927;28;20241;-78
2024/01/16 15:43:26;;;;;;;12.13;7.80;;;0.10;78.00;;;;;;6268684;28;20319;-77
2024/01/16 15:46:31;;;;;;;9.47;7.77;;;0.20;78.10;;;;;;6263540;28;20315;-78
2024/01/16 15:49:35;;;;;;;11.63;7.83;;;0.10;78.20;;;;;;6220394;28;20242;-77
2024/01/16 15:52:38;;;;;;;11.77;7.90;;;0.20;78.20;;;;;;6244079;28;20237;-75
2024/01/16 15:55:41;;;;;;;9.23;8.13;;;0.20;78.30;;;;;;6240515;28;20234;-75
2024/01/16 15:58:44;;;;;;;11.57;7.67;;;0.20;79.30;;;;;;6243637;28;20242;-78
2024/01/16 16:01:50;;;;;;;13.93;9.20;;;0.20;80.00;;;;;;6224389;28;20780;-78
2024/01/16 16:04:54;;;;;;;13.77;9.10;;;0.10;80.30;;;;;;6218723;28;20239;-78